createdAt,value
2018-09-03T00:00:46.173Z,27.50
2018-09-03T00:03:14.418Z,26.37
2018-09-03T00:05:42.662Z,26.73
2018-09-03T00:08:10.873Z,25.40
2018-09-03T00:10:39.137Z,24.60
2018-09-03T00:13:07.361Z,26.03
2018-09-03T00:15:35.609Z,26.67
2018-09-03T00:18:03.857Z,26.07
2018-09-03T00:20:32.105Z,27.00
2018-09-03T00:23:00.346Z,26.30
2018-09-03T00:25:28.605Z,26.30
2018-09-03T00:27:56.870Z,26.10
2018-09-03T00:30:25.126Z,25.53
2018-09-03T00:32:58.553Z,25.10
2018-09-03T00:35:32.134Z,26.60
2018-09-03T00:38:05.781Z,25.30
2018-09-03T00:40:39.447Z,26.17
2018-09-03T00:43:12.965Z,26.20
2018-09-03T00:45:46.495Z,29.43
2018-09-03T00:48:14.802Z,30.53
2018-09-03T00:50:43.066Z,26.37
2018-09-03T00:53:11.299Z,26.20
2018-09-03T00:55:39.527Z,26.70
2018-09-03T00:58:08.097Z,29.40
2018-09-03T01:00:36.347Z,29.40
2018-09-03T01:03:04.599Z,28.80
2018-09-03T01:05:32.862Z,26.90
2018-09-03T01:08:01.100Z,25.77
2018-09-03T01:10:29.305Z,27.30
2018-09-03T01:12:57.554Z,27.97
2018-09-03T01:15:29.588Z,26.07
2018-09-03T01:17:59.038Z,26.67
2018-09-03T01:20:27.308Z,26.70
2018-09-03T01:22:55.541Z,25.83
2018-09-03T01:25:23.796Z,28.73
2018-09-03T01:27:52.043Z,29.87
2018-09-03T01:30:20.261Z,28.73
2018-09-03T01:32:48.509Z,29.70
2018-09-03T01:35:16.752Z,29.90
2018-09-03T01:37:45.011Z,32.60
2018-09-03T01:40:13.228Z,33.20
2018-09-03T01:42:41.599Z,32.77
2018-09-03T01:45:09.873Z,32.67
2018-09-03T01:47:38.101Z,32.40
2018-09-03T01:50:06.321Z,34.60
2018-09-03T01:52:34.606Z,32.37
2018-09-03T01:55:02.831Z,34.33
2018-09-03T01:57:31.080Z,35.60
2018-09-03T01:59:59.484Z,34.70
2018-09-03T02:02:27.710Z,34.87
2018-09-03T02:04:56.089Z,34.97
2018-09-03T02:07:24.329Z,35.27
2018-09-03T02:09:52.537Z,35.80
2018-09-03T02:12:20.793Z,39.80
2018-09-03T02:14:49.073Z,37.07
2018-09-03T02:17:17.365Z,37.50
2018-09-03T02:19:45.629Z,37.37
2018-09-03T02:22:13.858Z,37.23
2018-09-03T02:24:42.096Z,39.10
2018-09-03T02:27:10.353Z,40.40
2018-09-03T02:29:38.577Z,37.90
2018-09-03T02:32:06.790Z,37.83
2018-09-03T02:34:35.029Z,34.73
2018-09-03T02:37:03.475Z,35.53
2018-09-03T02:39:31.723Z,38.00
2018-09-03T02:41:59.921Z,37.80
2018-09-03T02:44:28.174Z,40.87
2018-09-03T02:46:56.393Z,38.20
2018-09-03T02:49:24.827Z,38.37
2018-09-03T02:51:53.062Z,37.17
2018-09-03T02:54:21.297Z,36.83
2018-09-03T02:56:49.557Z,34.30
2018-09-03T02:59:17.849Z,37.03
2018-09-03T03:01:46.130Z,38.30
2018-09-03T03:04:14.385Z,39.03
2018-09-03T03:06:42.608Z,37.17
2018-09-03T03:09:10.874Z,37.10
2018-09-03T03:11:39.819Z,37.47
2018-09-03T03:14:08.045Z,35.83
2018-09-03T03:16:36.293Z,35.17
2018-09-03T03:19:04.848Z,32.97
2018-09-03T03:21:33.082Z,33.03
2018-09-03T03:24:01.327Z,33.53
2018-09-03T03:26:29.585Z,29.30
2018-09-03T03:28:57.809Z,26.63
2018-09-03T03:31:26.049Z,26.87
2018-09-03T03:33:54.336Z,25.80
2018-09-03T03:36:22.594Z,24.57
2018-09-03T03:38:50.897Z,24.67
2018-09-03T03:41:19.152Z,27.77
2018-09-03T03:43:47.372Z,28.20
2018-09-03T03:46:15.628Z,27.20
2018-09-03T03:48:43.900Z,28.00
2018-09-03T03:51:12.185Z,29.27
2018-09-03T03:53:40.430Z,29.57
2018-09-03T03:56:08.883Z,30.43
2018-09-03T03:58:37.105Z,30.23
2018-09-03T04:01:05.353Z,35.63
2018-09-03T04:03:33.608Z,32.03
2018-09-03T04:06:01.837Z,33.13
2018-09-03T04:08:30.068Z,38.17
2018-09-03T04:10:58.341Z,37.80
2018-09-03T04:13:28.933Z,39.40
2018-09-03T04:15:57.959Z,37.93
2018-09-03T04:18:26.386Z,37.40
2018-09-03T04:20:54.611Z,36.17
2018-09-03T04:23:22.983Z,36.23
2018-09-03T04:25:51.097Z,36.03
2018-09-03T04:28:19.342Z,35.80
2018-09-03T04:30:47.590Z,37.07
2018-09-03T04:33:15.841Z,35.83
2018-09-03T04:35:44.105Z,37.77
2018-09-03T04:38:12.337Z,37.77
2018-09-03T04:40:40.574Z,36.63
2018-09-03T04:43:08.822Z,38.00
2018-09-03T04:45:37.400Z,37.73
2018-09-03T04:48:05.908Z,37.73
2018-09-03T04:50:34.125Z,38.10
2018-09-03T04:53:02.397Z,39.10
2018-09-03T04:55:30.626Z,41.43
2018-09-03T04:57:58.866Z,41.30
2018-09-03T05:00:27.089Z,39.60
2018-09-03T05:02:55.430Z,39.50
2018-09-03T05:05:24.088Z,37.60
2018-09-03T05:07:52.279Z,39.20
2018-09-03T05:10:20.669Z,39.17
2018-09-03T05:12:49.656Z,39.73
2018-09-03T05:15:17.894Z,37.47
2018-09-03T05:17:46.442Z,37.67
2018-09-03T05:20:14.712Z,37.50
2018-09-03T05:22:42.950Z,38.57
2018-09-03T05:25:11.442Z,37.00
2018-09-03T05:27:39.706Z,36.07
2018-09-03T05:30:08.620Z,37.20
2018-09-03T05:32:37.095Z,36.83
2018-09-03T05:35:05.785Z,36.80
2018-09-03T05:37:34.037Z,34.67
2018-09-03T05:40:02.257Z,34.07
2018-09-03T05:42:30.461Z,34.83
2018-09-03T05:44:58.681Z,32.10
2018-09-03T05:47:26.874Z,33.63
2018-09-03T05:49:55.081Z,32.97
2018-09-03T05:52:23.319Z,34.97
2018-09-03T05:54:51.546Z,33.07
2018-09-03T05:57:19.779Z,33.23
2018-09-03T05:59:47.982Z,32.17
2018-09-03T06:02:16.189Z,31.50
2018-09-03T06:04:44.481Z,30.70
2018-09-03T06:07:12.984Z,29.57
2018-09-03T06:09:41.206Z,31.20
2018-09-03T06:12:09.481Z,32.20
2018-09-03T06:14:37.712Z,28.87
2018-09-03T06:17:06.091Z,31.17
2018-09-03T06:19:34.286Z,28.87
2018-09-03T06:22:02.513Z,35.30
2018-09-03T06:24:31.007Z,28.40
2018-09-03T06:26:59.221Z,29.47
2018-09-03T06:29:27.726Z,28.30
2018-09-03T06:31:55.965Z,28.50
2018-09-03T06:34:24.224Z,29.07
2018-09-03T06:36:52.429Z,25.37
2018-09-03T06:39:20.771Z,25.90
2018-09-03T06:41:48.893Z,27.43
2018-09-03T06:44:17.122Z,27.47
2018-09-03T06:46:45.356Z,25.17
2018-09-03T06:49:13.777Z,25.80
2018-09-03T06:51:42.203Z,25.87
2018-09-03T06:54:10.547Z,25.53
2018-09-03T06:56:38.765Z,26.50
2018-09-03T06:59:06.965Z,26.97
2018-09-03T07:01:35.325Z,25.47
2018-09-03T07:04:03.558Z,25.70
2018-09-03T07:06:31.997Z,28.53
2018-09-03T07:09:00.245Z,26.90
2018-09-03T07:11:28.456Z,24.37
2018-09-03T07:13:56.852Z,24.03
2018-09-03T07:16:25.092Z,24.80
2018-09-03T07:18:53.326Z,22.60
2018-09-03T07:21:21.620Z,26.27
2018-09-03T07:23:49.837Z,25.50
2018-09-03T07:26:18.065Z,24.87
2018-09-03T07:28:47.130Z,22.20
2018-09-03T07:31:15.370Z,23.00
2018-09-03T07:33:43.630Z,22.80
2018-09-03T07:36:12.089Z,22.60
2018-09-03T07:38:40.320Z,22.30
2018-09-03T07:41:08.541Z,21.23
2018-09-03T07:43:36.753Z,22.60
2018-09-03T07:46:04.997Z,22.90
2018-09-03T07:48:33.345Z,21.33
2018-09-03T07:51:01.659Z,22.77
2018-09-03T07:53:29.825Z,23.00
2018-09-03T07:55:58.086Z,20.53
2018-09-03T07:58:26.584Z,22.03
2018-09-03T08:00:54.979Z,21.47
2018-09-03T08:03:23.223Z,22.50
2018-09-03T08:05:51.446Z,20.50
2018-09-03T08:08:19.760Z,21.30
2018-09-03T08:10:47.974Z,20.17
2018-09-03T08:13:21.514Z,20.67
2018-09-03T08:15:49.814Z,18.60
2018-09-03T08:18:18.441Z,19.97
2018-09-03T08:20:47.713Z,19.90
2018-09-03T08:23:15.973Z,19.13
2018-09-03T08:25:44.201Z,20.20
2018-09-03T08:28:13.155Z,22.00
2018-09-03T08:30:41.378Z,20.43
2018-09-03T08:33:09.594Z,20.50
2018-09-03T08:35:38.041Z,18.67
2018-09-03T08:38:06.413Z,18.67
2018-09-03T08:40:34.650Z,18.07
2018-09-03T08:43:03.053Z,19.00
2018-09-03T08:45:31.290Z,18.20
2018-09-03T08:47:59.504Z,16.87
2018-09-03T08:50:27.785Z,18.00
2018-09-03T08:52:56.017Z,16.53
2018-09-03T08:55:24.222Z,17.53
2018-09-03T08:57:52.479Z,15.70
2018-09-03T09:00:20.738Z,15.23
2018-09-03T09:02:48.968Z,15.88
2018-09-03T09:05:17.418Z,16.73
2018-09-03T09:07:47.104Z,17.47
2018-09-03T09:10:15.359Z,16.33
2018-09-03T09:12:43.665Z,15.10
2018-09-03T09:15:11.887Z,14.47
2018-09-03T09:17:40.221Z,15.00
2018-09-03T09:20:08.412Z,17.47
2018-09-03T09:22:36.661Z,16.83
2018-09-03T09:25:05.382Z,16.20
2018-09-03T09:27:33.882Z,14.70
2018-09-03T09:30:02.122Z,13.83
2018-09-03T09:32:30.330Z,13.90
2018-09-03T09:34:58.562Z,13.83
2018-09-03T09:38:56.019Z,12.60
2018-09-03T09:41:24.297Z,11.87
2018-09-03T09:43:52.525Z,11.40
2018-09-03T09:46:20.847Z,12.77
2018-09-03T09:48:49.534Z,11.33
2018-09-03T09:51:17.809Z,10.53
2018-09-03T09:53:46.192Z,10.47
2018-09-03T09:56:14.571Z,11.13
2018-09-03T09:58:42.809Z,12.50
2018-09-03T10:01:16.652Z,11.27
2018-09-03T10:03:45.373Z,11.40
2018-09-03T10:06:13.619Z,12.47
2018-09-03T10:08:41.825Z,12.40
2018-09-03T10:11:10.231Z,12.60
2018-09-03T10:13:38.489Z,11.93
2018-09-03T10:16:06.857Z,10.53
2018-09-03T10:18:35.145Z,11.27
2018-09-03T10:21:03.428Z,11.30
2018-09-03T10:23:31.652Z,9.30
2018-09-03T10:25:59.939Z,7.17
2018-09-03T10:28:28.210Z,10.20
2018-09-03T10:30:56.441Z,7.40
2018-09-03T10:33:24.849Z,5.77
2018-09-03T10:35:53.337Z,5.03
2018-09-03T10:38:21.717Z,6.30
2018-09-03T10:40:49.925Z,10.63
2018-09-03T10:43:18.177Z,7.37
2018-09-03T10:45:46.970Z,7.80
2018-09-03T10:48:16.624Z,6.40
2018-09-03T10:50:45.334Z,7.03
2018-09-03T10:53:13.838Z,5.37
2018-09-03T10:55:42.351Z,5.60
2018-09-03T10:58:11.233Z,6.83
2018-09-03T11:00:39.583Z,6.33
2018-09-03T11:03:07.793Z,5.47
2018-09-03T11:05:36.011Z,5.83
2018-09-03T11:08:04.290Z,5.50
2018-09-03T11:10:32.508Z,6.20
2018-09-03T11:13:00.783Z,5.57
2018-09-03T11:15:28.977Z,5.67
2018-09-03T11:17:57.345Z,5.50
2018-09-03T11:20:27.729Z,5.00
2018-09-03T11:22:56.529Z,4.47
2018-09-03T11:25:25.996Z,5.80
2018-09-03T11:27:54.989Z,5.13
2018-09-03T11:30:23.696Z,5.93
2018-09-03T11:32:57.189Z,6.90
2018-09-03T11:35:25.647Z,6.70
2018-09-03T11:37:53.945Z,6.03
2018-09-03T11:40:23.078Z,4.70
2018-09-03T11:42:51.833Z,5.13
2018-09-03T11:45:21.104Z,5.93
2018-09-03T11:47:49.720Z,5.07
2018-09-03T11:50:18.705Z,5.40
2018-09-03T11:52:46.953Z,4.30
2018-09-03T11:55:15.540Z,5.23
2018-09-03T11:57:43.857Z,5.90
2018-09-03T12:00:15.883Z,5.53
2018-09-03T12:02:44.109Z,4.90
2018-09-03T12:05:12.358Z,5.00
2018-09-03T12:07:40.599Z,4.20
2018-09-03T12:10:08.938Z,4.70
2018-09-03T12:12:37.141Z,4.50
2018-09-03T12:15:10.490Z,4.17
2018-09-03T12:17:38.745Z,3.90
2018-09-03T12:20:07.095Z,3.98
2018-09-03T12:22:35.409Z,4.60
2018-09-03T12:25:03.621Z,4.73
2018-09-03T12:27:31.947Z,4.58
2018-09-03T12:30:00.122Z,4.83
2018-09-03T12:32:28.534Z,4.40
2018-09-03T12:34:56.902Z,5.10
2018-09-03T12:37:25.737Z,4.37
2018-09-03T12:39:53.988Z,4.63
2018-09-03T12:42:22.781Z,4.60
2018-09-03T12:44:50.992Z,6.83
2018-09-03T12:47:19.214Z,4.80
2018-09-03T12:49:47.545Z,4.60
2018-09-03T12:52:15.862Z,4.90
2018-09-03T12:54:44.112Z,4.80
2018-09-03T12:57:12.342Z,4.55
2018-09-03T12:59:40.781Z,5.00
2018-09-03T13:02:09.842Z,6.67
2018-09-03T13:04:39.189Z,5.00
2018-09-03T13:07:07.648Z,4.87
2018-09-03T13:09:35.845Z,4.30
2018-09-03T13:12:04.115Z,5.20
2018-09-03T13:14:32.446Z,4.20
2018-09-03T13:17:00.744Z,4.40
2018-09-03T13:19:29.079Z,4.43
2018-09-03T13:21:57.328Z,4.70
2018-09-03T13:24:25.733Z,4.00
2018-09-03T13:26:53.981Z,11.17
2018-09-03T13:29:22.478Z,8.60
2018-09-03T13:31:50.714Z,4.30
2018-09-03T13:34:19.049Z,7.50
2018-09-03T13:36:47.289Z,4.27
2018-09-03T13:39:15.522Z,4.07
2018-09-03T13:41:43.767Z,3.60
2018-09-03T13:44:11.955Z,3.40
2018-09-03T13:46:40.325Z,4.17
2018-09-03T13:49:08.537Z,3.50
2018-09-03T13:51:36.775Z,4.07
2018-09-03T13:54:05.018Z,4.00
2018-09-03T13:56:33.415Z,4.33
2018-09-03T13:59:01.668Z,4.55
2018-09-03T14:01:29.984Z,4.30
2018-09-03T14:03:58.201Z,4.30
2018-09-03T14:06:26.761Z,4.60
2018-09-03T14:08:55.231Z,5.15
2018-09-03T14:11:23.441Z,4.13
2018-09-03T14:13:51.706Z,4.40
2018-09-03T14:16:19.918Z,5.67
2018-09-03T14:18:48.669Z,4.53
2018-09-03T14:21:16.945Z,4.77
2018-09-03T14:23:45.396Z,3.33
2018-09-03T14:26:13.654Z,3.50
2018-09-03T14:28:42.011Z,4.33
2018-09-03T14:31:10.410Z,4.90
2018-09-03T14:33:38.633Z,4.20
2018-09-03T14:36:07.162Z,4.00
2018-09-03T14:38:35.538Z,6.40
2018-09-03T14:41:03.774Z,6.27
2018-09-03T14:43:31.962Z,4.80
2018-09-03T14:46:00.194Z,3.70
2018-09-03T14:48:28.412Z,4.37
2018-09-03T14:50:56.690Z,3.90
2018-09-03T14:53:25.195Z,5.73
2018-09-03T14:55:53.460Z,4.40
2018-09-03T14:58:21.710Z,3.70
2018-09-03T15:00:50.037Z,3.70
2018-09-03T15:03:19.129Z,4.57
2018-09-03T15:05:47.389Z,4.30
2018-09-03T15:08:15.695Z,3.67
2018-09-03T15:10:43.878Z,3.87
2018-09-03T15:13:12.124Z,4.10
2018-09-03T15:15:40.465Z,4.37
2018-09-03T15:18:08.811Z,4.57
2018-09-03T15:20:37.451Z,4.37
2018-09-03T15:23:05.684Z,5.20
2018-09-03T15:25:33.906Z,4.77
2018-09-03T15:28:02.234Z,4.53
2018-09-03T15:30:31.039Z,4.57
2018-09-03T15:32:59.322Z,5.63
2018-09-03T15:35:27.645Z,5.47
2018-09-03T15:37:55.906Z,4.90
2018-09-03T15:40:24.139Z,5.75
2018-09-03T15:42:52.414Z,4.45
2018-09-03T15:45:20.681Z,5.60
2018-09-03T15:47:48.961Z,5.15
2018-09-03T15:50:17.238Z,4.92
2018-09-03T15:52:45.454Z,5.90
2018-09-03T15:55:13.686Z,6.33
2018-09-03T15:57:41.951Z,6.50
2018-09-03T16:00:10.944Z,8.93
2018-09-03T16:02:39.677Z,6.97
2018-09-03T16:05:07.945Z,7.33
2018-09-03T16:07:36.130Z,5.00
2018-09-03T16:10:04.565Z,5.50
2018-09-03T16:12:33.027Z,5.10
2018-09-03T16:15:01.433Z,4.90
2018-09-03T16:17:29.641Z,5.77
2018-09-03T16:19:57.843Z,5.58
2018-09-03T16:22:26.318Z,7.40
2018-09-03T16:24:54.545Z,7.00
2018-09-03T16:27:22.891Z,6.50
2018-09-03T16:29:51.292Z,8.68
2018-09-03T16:32:19.534Z,6.30
2018-09-03T16:34:47.970Z,6.90
2018-09-03T16:37:16.222Z,6.63
2018-09-03T16:39:44.559Z,10.20
2018-09-03T16:42:12.782Z,7.70
2018-09-03T16:44:41.322Z,7.73
2018-09-03T16:47:09.834Z,7.33
2018-09-03T16:49:38.004Z,7.37
2018-09-03T16:52:06.570Z,9.30
2018-09-03T16:54:34.764Z,8.30
2018-09-03T16:57:02.959Z,8.60
2018-09-03T16:59:31.177Z,8.90
2018-09-03T17:01:59.691Z,8.77
2018-09-03T17:04:27.916Z,9.00
2018-09-03T17:06:56.306Z,8.27
2018-09-03T17:09:24.508Z,9.00
2018-09-03T17:11:53.007Z,10.00
2018-09-03T17:14:21.221Z,9.87
2018-09-03T17:16:49.429Z,10.17
2018-09-03T17:19:17.625Z,13.37
2018-09-03T17:21:45.793Z,9.77
2018-09-03T17:24:13.991Z,8.57
2018-09-03T17:26:42.398Z,10.30
2018-09-03T17:29:10.749Z,8.77
2018-09-03T17:31:38.929Z,9.20
2018-09-03T17:34:07.137Z,9.90
2018-09-03T17:36:35.333Z,8.80
2018-09-03T17:39:03.636Z,9.13
2018-09-03T17:41:31.825Z,9.00
2018-09-03T17:44:00.025Z,10.67
2018-09-03T17:46:28.217Z,9.30
2018-09-03T17:48:56.435Z,9.97
2018-09-03T17:51:24.642Z,10.70
2018-09-03T17:53:52.865Z,11.47
2018-09-03T17:56:21.100Z,9.67
2018-09-03T17:58:49.265Z,9.77
2018-09-03T18:01:17.471Z,9.17
2018-09-03T18:03:45.684Z,8.70
2018-09-03T18:06:13.961Z,8.83
2018-09-03T18:08:42.197Z,8.63
2018-09-03T18:11:10.437Z,7.10
2018-09-03T18:13:38.633Z,6.90
2018-09-03T18:16:06.845Z,7.30
2018-09-03T18:18:35.061Z,6.70
2018-09-03T18:21:03.278Z,6.23
2018-09-03T18:23:31.484Z,6.60
2018-09-03T18:25:59.687Z,6.60
2018-09-03T18:28:27.870Z,6.10
2018-09-03T18:30:56.077Z,6.13
2018-09-03T18:33:24.592Z,11.87
2018-09-03T18:35:52.854Z,12.57
2018-09-03T18:38:20.995Z,14.80
2018-09-03T18:40:49.285Z,15.77
2018-09-03T18:43:17.535Z,17.80
2018-09-03T18:45:45.756Z,15.30
2018-09-03T18:48:13.945Z,15.90
2018-09-03T18:50:42.165Z,17.30
2018-09-03T18:53:10.397Z,17.23
2018-09-03T18:55:38.800Z,18.90
2018-09-03T18:58:07.049Z,18.77
2018-09-03T19:00:35.277Z,19.70
2018-09-03T19:03:03.508Z,19.20
2018-09-03T19:05:31.713Z,17.67
2018-09-03T19:07:59.914Z,20.17
2018-09-03T19:10:28.105Z,20.50
2018-09-03T19:12:56.317Z,20.37
2018-09-03T19:15:24.523Z,19.70
2018-09-03T19:17:52.980Z,21.50
2018-09-03T19:20:21.190Z,20.00
2018-09-03T19:22:49.409Z,19.60
2018-09-03T19:25:17.597Z,20.23
2018-09-03T19:27:45.838Z,21.57
2018-09-03T19:30:14.233Z,20.50
2018-09-03T19:32:42.669Z,21.17
2018-09-03T19:35:10.912Z,21.93
2018-09-03T19:37:39.144Z,21.87
2018-09-03T19:40:07.680Z,23.47
2018-09-03T19:42:36.006Z,23.03
2018-09-03T19:45:04.240Z,22.30
2018-09-03T19:47:32.445Z,20.90
2018-09-03T19:50:00.705Z,20.63
2018-09-03T19:52:28.941Z,24.33
2018-09-03T19:54:57.129Z,22.13
2018-09-03T19:57:25.325Z,21.50
2018-09-03T19:59:53.533Z,21.43
2018-09-03T20:03:51.409Z,22.10
2018-09-03T20:06:19.835Z,24.07
2018-09-03T20:08:48.855Z,23.10
2018-09-03T20:11:17.061Z,22.17
2018-09-03T20:13:45.261Z,23.73
2018-09-03T20:16:13.470Z,22.20
2018-09-03T20:18:41.908Z,22.03
2018-09-03T20:21:10.113Z,21.87
2018-09-03T20:23:38.506Z,22.70
2018-09-03T20:26:07.573Z,21.30
2018-09-03T20:28:35.834Z,22.30
2018-09-03T20:31:04.012Z,22.73
2018-09-03T20:33:32.209Z,22.90
2018-09-03T20:36:00.559Z,24.37
2018-09-03T20:38:28.756Z,20.70
2018-09-03T20:40:56.968Z,22.87
2018-09-03T20:43:25.165Z,22.83
2018-09-03T20:45:53.485Z,23.37
2018-09-03T20:48:21.702Z,24.20
2018-09-03T20:50:49.917Z,23.80
2018-09-03T20:53:18.133Z,26.87
2018-09-03T20:55:46.322Z,24.83
2018-09-03T20:58:14.545Z,25.30
2018-09-03T21:00:42.865Z,24.17
2018-09-03T21:03:11.057Z,27.20
2018-09-03T21:05:39.261Z,25.40
2018-09-03T21:08:07.653Z,25.30
2018-09-03T21:10:35.896Z,25.17
2018-09-03T21:13:04.145Z,26.93
2018-09-03T21:15:32.340Z,25.80
2018-09-03T21:18:00.569Z,28.00
2018-09-03T21:20:28.769Z,27.20
2018-09-03T21:22:56.955Z,28.00
2018-09-03T21:25:25.165Z,28.67
2018-09-03T21:27:53.357Z,27.77
2018-09-03T21:30:21.846Z,29.23
2018-09-03T21:32:50.047Z,27.20
2018-09-03T21:35:18.257Z,26.00
2018-09-03T21:37:46.449Z,27.17
2018-09-03T21:40:14.673Z,26.90
2018-09-03T21:42:42.857Z,27.97
2018-09-03T21:45:11.069Z,28.30
2018-09-03T21:47:39.563Z,27.23
2018-09-03T21:50:07.772Z,28.43
2018-09-03T21:52:36.012Z,27.10
2018-09-03T21:55:04.407Z,27.73
2018-09-03T21:57:32.633Z,28.97
2018-09-03T22:00:00.845Z,29.27
2018-09-03T22:02:29.033Z,30.33
2018-09-03T22:04:57.261Z,29.53
2018-09-03T22:07:25.458Z,30.07
2018-09-03T22:09:53.681Z,27.03
2018-09-03T22:12:22.127Z,26.60
2018-09-03T22:14:50.333Z,28.37
2018-09-03T22:17:18.518Z,28.60
2018-09-03T22:19:46.942Z,27.23
2018-09-03T22:22:15.273Z,27.67
2018-09-03T22:24:43.481Z,26.33
2018-09-03T22:27:11.702Z,30.40
2018-09-03T22:29:39.901Z,26.00
2018-09-03T22:32:08.302Z,25.03
2018-09-03T22:34:36.625Z,26.07
2018-09-03T22:37:04.995Z,25.10
2018-09-03T22:39:33.202Z,27.20
2018-09-03T22:42:01.434Z,25.50
2018-09-03T22:44:29.633Z,24.43
2018-09-03T22:46:57.860Z,24.97
2018-09-03T22:49:26.074Z,25.70
2018-09-03T22:51:54.281Z,24.47
2018-09-03T22:54:22.485Z,24.40
2018-09-03T22:56:50.799Z,26.13
2018-09-03T22:59:19.003Z,24.57
2018-09-03T23:01:47.206Z,26.90
2018-09-03T23:04:15.407Z,25.43
2018-09-03T23:06:43.690Z,26.30
2018-09-03T23:09:11.890Z,26.80
2018-09-03T23:11:40.101Z,24.33
2018-09-03T23:14:08.671Z,25.57
2018-09-03T23:16:36.913Z,24.17
2018-09-03T23:19:05.296Z,24.00
2018-09-03T23:21:33.507Z,23.80
2018-09-03T23:24:01.699Z,23.33
2018-09-03T23:26:30.100Z,23.00
2018-09-03T23:28:58.272Z,21.80
2018-09-03T23:31:26.473Z,22.13
2018-09-03T23:33:54.677Z,23.57
2018-09-03T23:36:22.868Z,23.27
2018-09-03T23:38:51.089Z,24.63
2018-09-03T23:41:19.450Z,24.33
2018-09-03T23:43:47.705Z,24.13
2018-09-03T23:46:15.909Z,23.50
2018-09-03T23:48:44.120Z,22.13
2018-09-03T23:51:12.365Z,22.60
2018-09-03T23:53:40.731Z,24.27
2018-09-03T23:56:08.933Z,22.50
2018-09-03T23:58:37.166Z,22.83
